Hickory Regional Airport
KHKY : now visible

Aeroporto :











RITROVATECI SU...

 
LOGIN :

Iscrizione | Disclaimer

   EN    FR    IT 

 









Sommario :    VFR   VFR Marginale   IFR   IFR Intensivo   IFR Molto Intensivo
Visibilità : 
Base nubi : 
>= 8 km
>= 3000ft
5 / 8 km
1000 / 3000 ft
1500m / 5 km
500 / 1000 ft
800 / 1500m
200 / 500 ft
< 800m
< 200 ft
Simboli :   Temporali  Nebbia  Neve Forte  Precipitazioni Forti  Vento > 20 kt






- Altitudine del aeroporto : 1190 ft
- Codice IATA : HKY


KHKY - Hickory Regional

ULTIMO METAR :
  • 182003Z 17003KT 2SM UP BR OVC004 01/00 A3022 RMK AO2 CIG 003V008 PRESFR P0001 T00110000

METARs OBSOLETI :
  • 181953Z 19004KT 2SM UP BR OVC005 01/00 A3024 RMK AO2 RAB01E14UPB14 CIG 003V007 SLP237 P0003 T00110000
  • 181925Z 22003KT 1 3/4SM UP BR BKN004 OVC015 01/00 A3025 RMK AO2 RAB01E14UPB14 P0001 T00110000
  • 181853Z 20003KT 1 1/4SM BR OVC016 01/M01 A3026 RMK AO2 SLP244 T00111006
  • 181839Z 22004KT 1 3/4SM BR OVC017 01/M01 A3028 RMK AO2 T00111006
  • 181753Z 23008KT 5SM HZ OVC020 02/M02 A3030 RMK AO2 SLP258 T00171017 10033 20017 58041

TAF KHKY
Valido dal 18 a 20 ore il 19 a 18 ore UTC


181953Z 1820/1918 21006KT 4SM -RA BR OVC005
TEMPO 1822/1901 2SM RAPL BR OVC004
FM190900 27008KT P6SM SCT035
FM191500 30008G15KT P6SM FEW250



MetMap, La meteo Aeronautica in un colpo d'occhio ! - Copyright ORBIFLY Dicembre 2007 - Disclaimer

ORBIFLY MET'MAP TEAM :

Programmazione e sviluppo : Alexandra Zaïnal
Concezione : Baudouin d'Aumeries
Aiuto per la programmazione : Marc-Olivier Méhu
Supporto tecnico e logistico : Manuel Goepfert
Aiuto per la traduzione : Arnaldo La Scala

Contatto : metmap@orbifly.com




FONTI E CREDITI :

   NOAA       Earth
Advisory